Time;durP1;ratioP1;P1;durP2;ratioP2;P2;SDS_P1;SDS_P2;PMS_P1;PMS_P2;Temp;Humidity;BMP_temperature;BMP_pressure;BME280_temperature;BME280_humidity;BME280_pressure;Samples;Min_cycle;Max_cycle;Signal;HPM_P1;HPM_P2
2023/10/13 00:01:52;;;;;;;;;;;;;;;32.83;28.42;98240.16;5012400;28;19926;-92
2023/10/13 00:04:22;;;;;;;;;;;;;;;33.05;28.31;98238.50;5010206;28;19926;-92
2023/10/13 00:06:48;;;;;;;;;;;;;;;33.27;27.54;98240.94;5009583;28;20397;-93
2023/10/13 00:09:15;;;;;;;;;;;;;;;33.27;27.64;98238.09;5003532;28;19944;-93
2023/10/13 00:11:44;;;;;;;;;;;;;;;33.31;27.50;98236.59;5000205;28;19922;-93
2023/10/13 00:14:16;;;;;;;;;;;;;;;33.14;27.87;98238.41;5004823;28;20019;-94
2023/10/13 00:16:43;;;;;;;;;;;;;;;32.42;28.99;98234.22;5008669;28;19922;-92
2023/10/13 00:19:13;;;;;;;;;;;;;;;32.68;28.52;98231.63;5012508;28;19953;-93
2023/10/13 00:21:39;;;;;;;;;;;;;;;32.89;27.97;98238.97;5012273;28;19972;-94
2023/10/13 00:24:12;;;;;;;;;;;;;;;33.01;27.92;98231.41;5013739;28;20000;-93
2023/10/13 00:26:42;;;;;;;;;;;;;;;33.20;27.93;98221.41;5013218;28;19925;-93
2023/10/13 00:29:17;;;;;;;;;;;;;;;33.33;27.83;98225.50;5002921;28;19928;-92
2023/10/13 00:31:48;;;;;;;;;;;;;;;33.12;27.50;98229.56;5005046;28;19929;-92
2023/10/13 00:34:28;;;;;;;;;;;;;;;32.67;27.98;98230.06;5016523;28;19960;-93
2023/10/13 00:37:18;;;;;;;;;;;;;;;32.23;28.60;98215.75;5016964;28;20013;-94
2023/10/13 00:39:45;;;;;;;;;;;;;;;32.01;28.84;98233.16;5014822;28;20374;-94
2023/10/13 00:42:25;;;;;;;;;;;;;;;32.47;28.66;98221.38;5011995;28;19921;-93
2023/10/13 00:44:54;;;;;;;;;;;;;;;32.60;28.63;98224.78;5010704;28;20333;-93
2023/10/13 00:50:02;;;;;;;;;;;;;;;32.64;28.46;98219.66;5008616;28;19921;-93
2023/10/13 00:52:29;;;;;;;;;;;;;;;32.66;28.14;98223.59;5009640;28;19922;-92
2023/10/13 00:54:58;;;;;;;;;;;;;;;32.82;28.04;98216.63;5014379;28;19921;-93
2023/10/13 00:57:30;;;;;;;;;;;;;;;32.72;27.79;98223.69;5007410;28;20524;-92
2023/10/13 01:00:12;;;;;;;;;;;;;;;32.42;28.05;98207.84;5016099;28;19925;-92
2023/10/13 01:02:38;;;;;;;;;;;;;;;32.13;28.11;98213.47;5007063;28;19932;-93
2023/10/13 01:05:04;;;;;;;;;;;;;;;32.40;27.95;98208.34;5013038;28;20029;-92
2023/10/13 01:07:30;;;;;;;;;;;;;;;32.39;27.99;98208.84;5005255;28;20298;-92
2023/10/13 01:09:56;;;;;;;;;;;;;;;32.41;28.32;98207.06;5019955;28;19922;-92
2023/10/13 01:12:25;;;;;;;;;;;;;;;32.41;28.09;98203.44;5007909;28;19929;-92
2023/10/13 01:14:51;;;;;;;;;;;;;;;32.43;28.25;98195.22;5013541;28;20296;-92
2023/10/13 01:17:18;;;;;;;;;;;;;;;32.37;27.71;98194.34;5013094;28;20016;-92
2023/10/13 01:19:45;;;;;;;;;;;;;;;32.27;28.18;98202.16;5012948;28;19929;-93
2023/10/13 01:22:11;;;;;;;;;;;;;;;32.38;27.71;98196.69;5015850;28;19929;-93
2023/10/13 01:24:37;;;;;;;;;;;;;;;32.45;27.78;98198.34;5009645;28;19917;-93
2023/10/13 01:27:17;;;;;;;;;;;;;;;32.56;27.56;98204.25;5014752;28;20321;-93
2023/10/13 01:29:49;;;;;;;;;;;;;;;32.75;27.30;98203.59;4999272;28;20015;-94
2023/10/13 01:32:16;;;;;;;;;;;;;;;32.95;27.34;98202.09;5010726;28;19987;-94
2023/10/13 01:34:46;;;;;;;;;;;;;;;32.87;27.32;98207.41;5015123;28;20305;-94
2023/10/13 01:37:12;;;;;;;;;;;;;;;32.72;27.79;98200.94;5006061;28;19928;-94
2023/10/13 01:39:38;;;;;;;;;;;;;;;32.42;28.03;98211.47;5006271;28;19948;-94
2023/10/13 01:42:06;;;;;;;;;;;;;;;32.56;28.04;98207.88;5007891;28;20389;-94
2023/10/13 01:44:32;;;;;;;;;;;;;;;32.44;28.34;98202.47;5024016;28;19926;-94
2023/10/13 01:47:06;;;;;;;;;;;;;;;32.03;28.67;98204.25;5016101;28;19918;-94
2023/10/13 01:49:42;;;;;;;;;;;;;;;31.98;29.13;98199.22;5014813;28;19918;-94
2023/10/13 01:52:11;;;;;;;;;;;;;;;32.31;28.80;98196.25;5007359;28;19922;-94
2023/10/13 01:54:41;;;;;;;;;;;;;;;32.59;28.42;98189.06;5010094;28;20058;-94
2023/10/13 01:57:08;;;;;;;;;;;;;;;32.80;27.46;98196.41;5013933;28;19922;-93
2023/10/13 01:59:43;;;;;;;;;;;;;;;32.98;27.23;98199.03;5011764;28;19925;-93
2023/10/13 02:02:12;;;;;;;;;;;;;;;32.52;27.82;98198.00;5006544;28;19933;-93
2023/10/13 02:04:55;;;;;;;;;;;;;;;32.17;27.94;98194.19;5015126;28;19921;-94
2023/10/13 02:07:26;;;;;;;;;;;;;;;32.17;27.70;98194.97;5005763;28;19917;-93
2023/10/13 02:09:54;;;;;;;;;;;;;;;32.42;27.44;98194.41;5010788;28;20008;-95
2023/10/13 02:12:27;;;;;;;;;;;;;;;32.66;27.61;98183.78;5004238;28;19917;-94
2023/10/13 02:14:53;;;;;;;;;;;;;;;32.17;27.79;98185.66;4997899;28;20219;-94
2023/10/13 02:17:23;;;;;;;;;;;;;;;31.89;28.41;98183.03;5013008;28;19918;-94
2023/10/13 02:19:54;;;;;;;;;;;;;;;32.04;28.07;98180.25;5009315;28;20067;-94
2023/10/13 02:22:31;;;;;;;;;;;;;;;32.22;28.28;98176.47;5006829;28;19940;-94
2023/10/13 02:25:01;;;;;;;;;;;;;;;32.35;27.85;98168.47;5000478;28;19922;-95
2023/10/13 02:27:27;;;;;;;;;;;;;;;32.13;27.92;98170.88;5013717;28;19925;-94
2023/10/13 02:29:58;;;;;;;;;;;;;;;31.81;28.58;98167.63;5011752;28;19929;-94
2023/10/13 02:32:26;;;;;;;;;;;;;;;31.84;28.66;98169.50;5011010;28;19930;-95
2023/10/13 02:34:52;;;;;;;;;;;;;;;32.06;28.12;98174.88;5010782;28;19971;-94
2023/10/13 02:37:20;;;;;;;;;;;;;;;32.24;28.35;98179.59;5002874;28;19938;-94
2023/10/13 02:39:46;;;;;;;;;;;;;;;32.38;27.84;98176.78;5008362;28;20104;-95
2023/10/13 02:42:24;;;;;;;;;;;;;;;32.45;27.41;98179.22;4999238;28;20378;-95
2023/10/13 02:44:50;;;;;;;;;;;;;;;32.47;27.26;98175.91;5013624;28;20016;-94
2023/10/13 02:47:19;;;;;;;;;;;;;;;32.25;27.72;98172.66;5015161;28;20313;-94
2023/10/13 02:49:47;;;;;;;;;;;;;;;32.12;28.18;98170.06;5014842;28;19921;-95
2023/10/13 02:52:13;;;;;;;;;;;;;;;32.23;27.79;98173.13;5005758;28;19922;-95
2023/10/13 02:54:46;;;;;;;;;;;;;;;32.40;27.53;98188.44;5007202;28;19921;-94
2023/10/13 02:57:15;;;;;;;;;;;;;;;32.26;27.47;98185.56;5012918;28;19918;-94
2023/10/13 02:59:46;;;;;;;;;;;;;;;32.26;27.57;98188.41;5014224;28;19921;-95
2023/10/13 03:02:29;;;;;;;;;;;;;;;32.09;28.08;98196.63;5010071;28;19955;-94
2023/10/13 03:04:59;;;;;;;;;;;;;;;32.17;28.02;98194.97;4999476;28;19929;-96
2023/10/13 03:07:28;;;;;;;;;;;;;;;32.30;28.23;98191.88;5012402;28;19926;-95
2023/10/13 03:09:57;;;;;;;;;;;;;;;32.51;27.80;98193.59;5014706;28;20022;-95
2023/10/13 03:12:33;;;;;;;;;;;;;;;32.37;27.71;98194.34;5007167;28;20290;-95
2023/10/13 03:15:21;;;;;;;;;;;;;;;32.50;27.36;98183.47;5011252;28;20374;-96
2023/10/13 03:17:46;;;;;;;;;;;;;;;32.40;28.07;98184.81;5003631;28;20377;-95
2023/10/13 03:20:16;;;;;;;;;;;;;;;32.09;28.35;98182.44;5002816;28;20286;-95
2023/10/13 03:22:44;;;;;;;;;;;;;;;31.91;28.66;98177.66;5009733;28;20000;-96
2023/10/13 03:25:17;;;;;;;;;;;;;;;31.76;29.07;98174.00;5016602;28;20292;-96
2023/10/13 03:30:20;;;;;;;;;;;;;;;31.99;28.70;98172.41;5026894;28;19932;-96
2023/10/13 03:32:50;;;;;;;;;;;;;;;32.00;28.21;98171.91;5034807;28;19925;-96
2023/10/13 03:35:25;;;;;;;;;;;;;;;32.08;28.10;98175.97;5031074;28;19928;-96
2023/10/13 03:37:52;;;;;;;;;;;;;;;32.06;28.28;98172.81;5011152;28;20357;-96
2023/10/13 03:43:03;;;;;;;;;;;;;;;32.38;27.64;98171.09;5033608;28;19906;-96
2023/10/13 03:45:40;;;;;;;;;;;;;;;32.46;27.33;98182.88;5019020;28;20031;-93
2023/10/13 03:48:09;;;;;;;;;;;;;;;32.43;28.14;98189.53;5028109;28;20405;-96
2023/10/13 03:50:36;;;;;;;;;;;;;;;32.46;27.99;98186.50;5039139;28;19965;-85
2023/10/13 03:53:03;;;;;;;;;;;;;;;32.52;27.55;98189.47;5039902;28;19905;-85
2023/10/13 03:55:29;;;;;;;;;;;;;;;32.44;27.71;98191.88;5039635;28;19945;-85
2023/10/13 03:57:56;;;;;;;;;;;;;;;32.36;27.64;98202.06;5039742;28;19912;-85
2023/10/13 04:00:26;;;;;;;;;;;;;;;32.42;27.46;98202.94;5039752;28;19914;-87
2023/10/13 04:06:00;;;;;;;;;;;;;;;32.38;27.57;98196.69;5039789;28;19905;-85
2023/10/13 04:32:29;;;;;;;;;;;;;;;32.17;28.35;98188.50;5007519;28;20063;-96
2023/10/13 04:35:09;;;;;;;;;;;;;;;32.26;28.74;98197.72;5010822;28;19926;-96
2023/10/13 04:37:48;;;;;;;;;;;;;;;32.46;27.93;98197.88;5022858;28;19921;-96
2023/10/13 04:40:14;;;;;;;;;;;;;;;32.38;28.15;98204.41;5017486;28;19930;-96
2023/10/13 04:42:49;;;;;;;;;;;;;;;32.51;27.80;98205.72;5028355;28;19917;-96
2023/10/13 04:45:38;;;;;;;;;;;;;;;32.46;28.00;98205.59;5031017;28;19922;-96
2023/10/13 04:48:27;;;;;;;;;;;;;;;32.59;28.21;98208.97;5035915;28;19984;-96
2023/10/13 04:51:23;;;;;;;;;;;;;;;32.79;27.61;98203.41;5037970;28;19917;-93
2023/10/13 04:54:00;;;;;;;;;;;;;;;32.78;28.02;98207.50;5028208;28;19957;-92
2023/10/13 04:59:35;;;;;;;;;;;;;;;32.92;27.61;98218.09;5035118;28;19936;-96
2023/10/13 05:51:33;;;;;;;;;;;;;;;32.94;28.24;98244.00;5026313;28;19956;-94
2023/10/13 06:29:57;;;;;;;;;;;;;;;32.78;29.06;98261.53;5014864;28;19999;-95
2023/10/13 06:32:25;;;;;;;;;;;;;;;32.57;29.62;98268.38;5020858;28;19929;-94
2023/10/13 06:34:57;;;;;;;;;;;;;;;32.84;29.14;98264.50;5027454;28;19928;-94
2023/10/13 06:37:30;;;;;;;;;;;;;;;33.00;28.73;98276.16;5014416;28;20374;-94
2023/10/13 06:42:50;;;;;;;;;;;;;;;33.14;28.68;98278.25;5014579;28;19926;-94
2023/10/13 06:45:17;;;;;;;;;;;;;;;33.32;28.30;98280.09;5033091;28;19924;-94
2023/10/13 06:47:43;;;;;;;;;;;;;;;33.31;28.44;98287.06;5032854;28;20004;-95
2023/10/13 06:50:15;;;;;;;;;;;;;;;33.42;28.59;98281.56;5018401;28;19921;-94
2023/10/13 06:52:42;;;;;;;;;;;;;;;33.25;28.66;98278.44;5011784;28;19929;-94
2023/10/13 06:55:17;;;;;;;;;;;;;;;33.40;28.41;98284.09;5014428;28;20345;-94
2023/10/13 06:57:46;;;;;;;;;;;;;;;32.96;29.16;98286.94;5013799;28;20132;-94
2023/10/13 07:00:26;;;;;;;;;;;;;;;33.15;29.29;98287.56;5013396;28;19953;-94
2023/10/13 07:02:52;;;;;;;;;;;;;;;33.06;28.91;98288.47;5011384;28;19926;-94
2023/10/13 07:05:19;;;;;;;;;;;;;;;32.93;29.26;98290.00;5013937;28;19924;-94
2023/10/13 07:07:45;;;;;;;;;;;;;;;33.24;29.30;98290.31;5017426;28;19922;-94
2023/10/13 07:10:12;;;;;;;;;;;;;;;32.91;28.93;98279.09;5013323;28;20076;-93
2023/10/13 07:12:43;;;;;;;;;;;;;;;32.78;29.65;98290.00;5013533;28;19918;-94
2023/10/13 07:15:19;;;;;;;;;;;;;;;32.71;29.91;98284.69;5013841;28;19920;-94
2023/10/13 07:17:47;;;;;;;;;;;;;;;32.91;29.54;98289.72;5013713;28;20273;-94
2023/10/13 07:23:17;;;;;;;;;;;;;;;32.82;29.52;98290.56;4992361;28;19929;-94
2023/10/13 07:25:51;;;;;;;;;;;;;;;32.81;29.95;98288.22;5013144;28;20393;-93
2023/10/13 07:28:17;;;;;;;;;;;;;;;32.78;29.72;98289.19;5044613;28;20285;-94
2023/10/13 07:33:21;;;;;;;;;;;;;;;32.60;30.57;98302.31;5013518;28;19965;-94
2023/10/13 07:35:50;;;;;;;;;;;;;;;32.61;30.65;98303.09;5009232;28;19925;-95
2023/10/13 07:38:16;;;;;;;;;;;;;;;32.83;29.66;98294.22;5013362;28;19917;-94
2023/10/13 07:40:50;;;;;;;;;;;;;;;32.84;29.85;98298.63;5011038;28;19926;-95
2023/10/13 07:43:21;;;;;;;;;;;;;;;32.89;29.54;98301.56;5013209;28;20409;-95
2023/10/13 07:45:50;;;;;;;;;;;;;;;32.85;30.03;98294.50;5013911;28;19920;-94
2023/10/13 07:48:20;;;;;;;;;;;;;;;32.85;29.76;98288.81;5011974;28;19971;-94
2023/10/13 07:51:27;;;;;;;;;;;;;;;32.57;30.39;98293.97;5031797;28;20250;-94
2023/10/13 07:53:53;;;;;;;;;;;;;;;32.82;30.64;98295.47;5016722;28;19932;-94
2023/10/13 07:56:19;;;;;;;;;;;;;;;33.39;29.67;98294.72;5010455;28;20407;-94
2023/10/13 07:59:00;;;;;;;;;;;;;;;33.33;30.20;98290.19;5014867;28;20341;-95
2023/10/13 08:01:26;;;;;;;;;;;;;;;33.49;29.57;98289.69;5013126;28;19998;-95
2023/10/13 08:06:36;;;;;;;;;;;;;;;33.75;29.91;98284.16;5010199;28;20424;-96
2023/10/13 08:09:29;;;;;;;;;;;;;;;33.81;30.07;98300.06;5013069;28;19918;-95
2023/10/13 08:11:55;;;;;;;;;;;;;;;33.89;30.62;98292.66;5012913;28;19921;-96
2023/10/13 08:14:28;;;;;;;;;;;;;;;34.13;29.71;98294.53;5014628;28;20033;-96
2023/10/13 08:16:59;;;;;;;;;;;;;;;33.99;30.90;98290.44;5031394;28;19983;-96
2023/10/13 08:19:27;;;;;;;;;;;;;;;34.46;29.43;98286.41;5022304;28;19928;-96
2023/10/13 08:21:59;;;;;;;;;;;;;;;34.57;29.56;98283.72;5013402;28;20012;-96
2023/10/13 08:32:24;;;;;;;;;;;;;;;34.98;29.23;98282.34;5016656;28;19955;-96
2023/10/13 08:50:47;;;;;;;;;;;;;;;36.32;26.86;98281.25;5043605;28;19917;-96
2023/10/13 08:53:27;;;;;;;;;;;;;;;36.43;27.26;98276.34;5040838;28;19948;-96
2023/10/13 09:04:20;;;;;;;;;;;;;;;35.54;27.62;98275.09;5047912;28;19921;-96
2023/10/13 09:09:36;;;;;;;;;;;;;;;35.70;27.02;98274.41;5040510;28;20289;-96
2023/10/13 09:12:10;;;;;;;;;;;;;;;35.75;26.95;98272.88;5025827;28;19927;-96
2023/10/13 09:14:44;;;;;;;;;;;;;;;36.04;27.64;98276.19;5043483;28;19952;-96
2023/10/13 09:19:49;;;;;;;;;;;;;;;35.50;28.28;98276.59;5028891;28;20369;-96
2023/10/13 09:22:27;;;;;;;;;;;;;;;35.71;27.70;98278.06;5037782;28;19912;-96
2023/10/13 09:24:58;;;;;;;;;;;;;;;35.83;27.10;98274.75;5035460;28;19932;-96
2023/10/13 09:27:27;;;;;;;;;;;;;;;35.22;27.99;98279.19;5026525;28;20357;-96
2023/10/13 09:30:01;;;;;;;;;;;;;;;34.11;28.34;98266.56;5023940;28;20373;-96
2023/10/13 09:32:28;;;;;;;;;;;;;;;34.65;28.71;98262.81;5019064;28;19932;-96
2023/10/13 09:34:59;;;;;;;;;;;;;;;34.24;31.59;98247.00;5022588;28;19960;-96
2023/10/13 09:37:27;;;;;;;;;;;;;;;34.60;28.17;98255.00;5012364;28;19922;-96
2023/10/13 09:40:04;;;;;;;;;;;;;;;34.83;27.36;98250.28;5023230;28;19923;-96
2023/10/13 09:42:33;;;;;;;;;;;;;;;34.53;27.60;98244.03;5023095;28;19917;-96
2023/10/13 09:45:04;;;;;;;;;;;;;;;33.65;28.70;98248.53;5028496;28;20281;-96
2023/10/13 09:47:32;;;;;;;;;;;;;;;33.54;29.48;98249.16;5032585;28;20392;-96
2023/10/13 09:50:03;;;;;;;;;;;;;;;33.44;29.38;98250.53;5030656;28;19949;-96
2023/10/13 09:52:30;;;;;;;;;;;;;;;34.05;28.58;98243.66;5034644;28;19902;-96
2023/10/13 09:55:17;;;;;;;;;;;;;;;35.06;28.38;98251.28;5035349;28;19922;-96
2023/10/13 09:57:48;;;;;;;;;;;;;;;34.92;27.15;98252.16;5032784;28;19908;-96
2023/10/13 10:03:30;;;;;;;;;;;;;;;34.87;29.99;98247.22;5029834;28;19909;-96
2023/10/13 10:06:03;;;;;;;;;;;;;;;35.23;28.35;98243.66;5034381;28;19917;-96
2023/10/13 10:08:38;;;;;;;;;;;;;;;35.99;26.49;98247.56;5037274;28;19905;-96
2023/10/13 10:11:20;;;;;;;;;;;;;;;36.03;26.53;98243.22;5038161;28;19986;-96
2023/10/13 10:13:57;;;;;;;;;;;;;;;35.86;26.78;98244.38;5025843;28;19913;-96
2023/10/13 10:16:48;;;;;;;;;;;;;;;35.69;26.17;98235.69;5035574;28;19921;-96
2023/10/13 10:19:14;;;;;;;;;;;;;;;35.55;26.94;98228.06;5030179;28;19928;-96
2023/10/13 10:21:41;;;;;;;;;;;;;;;36.07;26.38;98222.94;5036247;28;20370;-96
2023/10/13 10:24:13;;;;;;;;;;;;;;;36.34;26.63;98219.38;5034262;28;20340;-96
2023/10/13 10:26:52;;;;;;;;;;;;;;;36.55;26.00;98217.91;5035313;28;19929;-96
2023/10/13 10:29:18;;;;;;;;;;;;;;;36.81;25.20;98214.81;5040646;28;19909;-96
2023/10/13 10:31:45;;;;;;;;;;;;;;;37.15;25.05;98215.66;5040694;28;19926;-96
2023/10/13 10:34:12;;;;;;;;;;;;;;;37.33;25.67;98212.25;5039061;28;19909;-92
2023/10/13 10:36:42;;;;;;;;;;;;;;;37.26;24.92;98212.78;5040277;28;19905;-96
2023/10/13 10:39:11;;;;;;;;;;;;;;;36.76;27.54;98207.00;5025970;28;19964;-96
2023/10/13 10:50:06;;;;;;;;;;;;;;;36.81;29.42;98194.78;5023445;28;19928;-96
2023/10/13 10:52:37;;;;;;;;;;;;;;;36.99;25.30;98197.19;5033410;28;19967;-96
2023/10/13 10:55:13;;;;;;;;;;;;;;;36.64;25.47;98188.28;5024231;28;19926;-96
2023/10/13 10:57:48;;;;;;;;;;;;;;;36.42;24.91;98199.66;5026062;28;19921;-95
2023/10/13 11:00:19;;;;;;;;;;;;;;;36.18;24.97;98199.31;5021672;28;19921;-96
2023/10/13 11:02:55;;;;;;;;;;;;;;;35.57;26.67;98196.91;5016410;28;19979;-95
2023/10/13 11:05:24;;;;;;;;;;;;;;;35.55;27.20;98188.09;5030393;28;20335;-96
2023/10/13 11:07:51;;;;;;;;;;;;;;;36.19;25.77;98189.44;5039236;28;19924;-96
2023/10/13 11:10:38;;;;;;;;;;;;;;;36.95;25.10;98190.13;5045573;28;19924;-96
2023/10/13 11:13:21;;;;;;;;;;;;;;;37.56;24.92;98179.41;5049653;28;19921;-96
2023/10/13 11:15:48;;;;;;;;;;;;;;;37.90;23.76;98174.41;5036559;28;19925;-95
2023/10/13 11:18:23;;;;;;;;;;;;;;;37.45;23.94;98170.06;5019215;28;19940;-96
2023/10/13 11:20:56;;;;;;;;;;;;;;;37.19;24.94;98167.47;5021031;28;19918;-95
2023/10/13 11:23:28;;;;;;;;;;;;;;;37.38;24.50;98165.66;5019171;28;19924;-96
2023/10/13 11:25:59;;;;;;;;;;;;;;;37.34;25.13;98170.84;5017469;28;19969;-96
2023/10/13 11:28:27;;;;;;;;;;;;;;;37.29;24.57;98169.56;5020780;28;20297;-95
2023/10/13 11:30:58;;;;;;;;;;;;;;;37.29;24.64;98180.22;5016211;28;20011;-95
2023/10/13 11:33:27;;;;;;;;;;;;;;;36.15;25.92;98180.34;5016207;28;19928;-96
2023/10/13 11:38:26;;;;;;;;;;;;;;;36.14;26.00;98173.03;5021655;28;19917;-96
2023/10/13 11:43:52;;;;;;;;;;;;;;;36.70;25.37;98169.03;5035925;28;19924;-94
2023/10/13 11:51:44;;;;;;;;;;;;;;;35.36;26.23;98179.13;5033929;28;19917;-94
2023/10/13 11:54:21;;;;;;;;;;;;;;;35.77;26.30;98173.16;5014200;28;20441;-95
2023/10/13 11:56:48;;;;;;;;;;;;;;;35.83;26.03;98168.22;5033601;28;20000;-93
2023/10/13 11:59:24;;;;;;;;;;;;;;;35.57;26.75;98165.50;5012571;28;20020;-92
2023/10/13 12:04:54;;;;;;;;;;;;;;;36.26;25.55;98158.28;5002592;28;19972;-96
2023/10/13 12:07:27;;;;;;;;;;;;;;;36.53;24.40;98159.63;5012647;28;19933;-96
2023/10/13 12:12:21;;;;;;;;;;;;;;;36.83;24.82;98154.97;5014848;28;19917;-95
2023/10/13 12:14:57;;;;;;;;;;;;;;;37.22;25.05;98155.78;5013526;28;19929;-95
2023/10/13 12:17:36;;;;;;;;;;;;;;;37.54;24.10;98149.72;5016800;28;20312;-95
2023/10/13 12:20:06;;;;;;;;;;;;;;;37.56;24.69;98155.72;5017891;28;20368;-95
2023/10/13 12:22:54;;;;;;;;;;;;;;;37.28;24.64;98147.94;5016435;28;20293;-94
2023/10/13 12:28:12;;;;;;;;;;;;;;;37.24;24.47;98138.06;4998182;28;19965;-95
2023/10/13 12:30:52;;;;;;;;;;;;;;;37.64;23.85;98142.41;5016765;28;19924;-94
2023/10/13 12:33:24;;;;;;;;;;;;;;;37.36;23.98;98136.72;5017872;28;20357;-95
2023/10/13 12:36:03;;;;;;;;;;;;;;;37.18;24.84;98138.06;5017941;28;20004;-95
2023/10/13 12:38:37;;;;;;;;;;;;;;;37.18;23.90;98143.78;5017868;28;19995;-95
2023/10/13 12:52:05;;;;;;;;;;;;;;;37.09;24.87;98138.34;5034529;28;19978;-94
2023/10/13 12:54:38;;;;;;;;;;;;;;;37.28;25.10;98127.91;5022657;28;20007;-91
2023/10/13 12:57:09;;;;;;;;;;;;;;;37.53;24.76;98128.88;5029996;28;20018;-94
2023/10/13 12:59:35;;;;;;;;;;;;;;;37.66;24.87;98131.19;5015393;28;20451;-95
2023/10/13 13:02:06;;;;;;;;;;;;;;;37.36;25.65;98128.16;5017086;28;19926;-95
2023/10/13 13:04:36;;;;;;;;;;;;;;;37.98;23.76;98118.81;5017590;28;20277;-94
2023/10/13 13:07:05;;;;;;;;;;;;;;;38.13;23.25;98112.75;5017151;28;19922;-94
2023/10/13 13:09:32;;;;;;;;;;;;;;;38.10;25.04;98107.28;5017049;28;19913;-93
2023/10/13 13:11:58;;;;;;;;;;;;;;;37.91;23.95;98107.13;5017194;28;19967;-95
2023/10/13 13:14:28;;;;;;;;;;;;;;;37.86;23.79;98097.25;5016942;28;19971;-93
2023/10/13 13:17:03;;;;;;;;;;;;;;;37.58;23.66;98104.38;5008429;28;20402;-92
2023/10/13 13:19:36;;;;;;;;;;;;;;;37.56;24.57;98099.19;5014581;28;20377;-94
2023/10/13 13:22:03;;;;;;;;;;;;;;;37.38;24.48;98102.63;5031744;28;19918;-94
2023/10/13 13:24:29;;;;;;;;;;;;;;;37.50;24.12;98103.38;5014544;28;19931;-91
2023/10/13 13:26:56;;;;;;;;;;;;;;;37.58;23.80;98112.97;5004734;28;19921;-91
2023/10/13 13:29:22;;;;;;;;;;;;;;;37.67;23.89;98092.63;5003152;28;19921;-94
2023/10/13 13:31:48;;;;;;;;;;;;;;;37.88;23.77;98096.75;4996583;28;20394;-91
2023/10/13 13:34:14;;;;;;;;;;;;;;;37.74;23.74;98100.69;5011091;28;19951;-91
2023/10/13 13:36:44;;;;;;;;;;;;;;;37.57;24.19;98099.97;5009148;28;20017;-92
2023/10/13 13:39:10;;;;;;;;;;;;;;;37.56;23.51;98095.53;5013299;28;19932;-93
2023/10/13 13:41:38;;;;;;;;;;;;;;;37.55;24.16;98102.59;5015735;28;19921;-91
2023/10/13 13:44:15;;;;;;;;;;;;;;;37.57;23.85;98095.03;5013666;28;19968;-93
2023/10/13 13:46:42;;;;;;;;;;;;;;;37.12;24.26;98099.28;5012390;28;19966;-91
2023/10/13 13:49:17;;;;;;;;;;;;;;;37.30;24.01;98088.03;5006749;28;20021;-91
2023/10/13 13:51:51;;;;;;;;;;;;;;;37.80;24.03;98093.63;5012005;28;20405;-94
2023/10/13 13:54:18;;;;;;;;;;;;;;;37.17;24.05;98082.09;5005896;28;20412;-94
2023/10/13 13:56:44;;;;;;;;;;;;;;;37.49;24.57;98078.88;5002832;28;19925;-92
2023/10/13 13:59:15;;;;;;;;;;;;;;;37.33;24.12;98075.53;5015426;28;19928;-95
2023/10/13 14:01:44;;;;;;;;;;;;;;;37.65;24.42;98070.22;5010094;28;20294;-90
2023/10/13 14:04:10;;;;;;;;;;;;;;;37.75;24.11;98068.63;5000645;28;19964;-92
2023/10/13 14:06:37;;;;;;;;;;;;;;;37.68;24.03;98072.03;4999910;28;19921;-93
2023/10/13 14:09:14;;;;;;;;;;;;;;;37.70;24.02;98068.63;5007860;28;19992;-93
2023/10/13 14:14:12;;;;;;;;;;;;;;;37.64;24.20;98074.41;5015831;28;19972;-93
2023/10/13 14:16:46;;;;;;;;;;;;;;;37.71;24.32;98068.13;5017170;28;20344;-96
2023/10/13 14:19:13;;;;;;;;;;;;;;;37.97;24.18;98068.50;5006198;28;20366;-93
2023/10/13 14:21:39;;;;;;;;;;;;;;;37.75;23.83;98067.84;5001704;28;19926;-93
2023/10/13 14:24:13;;;;;;;;;;;;;;;37.71;24.04;98061.59;5004153;28;19936;-92
2023/10/13 14:26:39;;;;;;;;;;;;;;;37.66;23.52;98059.53;4999538;28;19926;-96
2023/10/13 14:29:08;;;;;;;;;;;;;;;37.33;24.14;98061.22;5017942;28;19932;-96
2023/10/13 14:31:37;;;;;;;;;;;;;;;37.48;24.10;98065.88;5014244;28;19925;-90
2023/10/13 14:34:03;;;;;;;;;;;;;;;37.29;24.25;98066.44;5001240;28;19996;-93
2023/10/13 14:36:34;;;;;;;;;;;;;;;37.34;24.75;98068.50;5012434;28;19928;-92
2023/10/13 14:39:00;;;;;;;;;;;;;;;37.36;25.12;98067.97;5015087;28;20306;-94
2023/10/13 14:41:27;;;;;;;;;;;;;;;37.33;24.51;98066.16;5013168;28;19917;-94
2023/10/13 14:43:56;;;;;;;;;;;;;;;37.61;24.84;98066.88;5015261;28;20366;-96
2023/10/13 14:46:25;;;;;;;;;;;;;;;37.74;24.75;98060.56;5013142;28;19921;-95
2023/10/13 14:48:51;;;;;;;;;;;;;;;37.60;24.28;98068.16;5013216;28;19976;-91
2023/10/13 14:51:18;;;;;;;;;;;;;;;37.64;24.91;98065.03;5014780;28;19963;-93
2023/10/13 14:53:44;;;;;;;;;;;;;;;37.67;24.54;98066.84;5028852;28;19917;-96
2023/10/13 14:56:14;;;;;;;;;;;;;;;37.83;24.03;98057.41;5021128;28;19917;-96
2023/10/13 14:58:43;;;;;;;;;;;;;;;37.84;24.44;98062.59;5024129;28;19957;-95
2023/10/13 15:01:16;;;;;;;;;;;;;;;37.85;24.20;98060.53;5019528;28;19940;-96
2023/10/13 15:03:43;;;;;;;;;;;;;;;37.82;24.44;98047.22;5023532;28;20051;-95
2023/10/13 15:06:20;;;;;;;;;;;;;;;37.47;24.65;98050.78;5023901;28;19985;-95
2023/10/13 15:08:47;;;;;;;;;;;;;;;37.55;24.83;98056.75;5026901;28;19928;-95
2023/10/13 15:11:13;;;;;;;;;;;;;;;37.55;24.82;98053.88;5032203;28;19921;-94
2023/10/13 15:13:40;;;;;;;;;;;;;;;37.37;24.94;98053.16;5032383;28;19923;-93
2023/10/13 15:16:13;;;;;;;;;;;;;;;37.22;25.60;98055.53;5019346;28;19963;-93
2023/10/13 15:18:40;;;;;;;;;;;;;;;36.79;26.88;98059.22;5015759;28;19996;-92
2023/10/13 15:21:08;;;;;;;;;;;;;;;36.92;26.58;98056.66;5027002;28;20389;-95
2023/10/13 15:23:42;;;;;;;;;;;;;;;36.97;26.47;98053.75;5013301;28;19987;-96
2023/10/13 15:26:09;;;;;;;;;;;;;;;36.83;26.68;98057.66;5001597;28;20347;-96
2023/10/13 15:28:37;;;;;;;;;;;;;;;36.62;27.04;98056.38;5012814;28;19930;-93
2023/10/13 15:31:22;;;;;;;;;;;;;;;36.55;27.19;98060.56;5003674;28;20295;-87
2023/10/13 15:33:54;;;;;;;;;;;;;;;36.63;26.83;98057.94;5002474;28;19928;-91
2023/10/13 15:36:21;;;;;;;;;;;;;;;36.51;26.91;98054.31;5003836;28;19928;-91
2023/10/13 15:38:47;;;;;;;;;;;;;;;36.49;27.13;98054.06;5002247;28;19922;-93
2023/10/13 15:41:13;;;;;;;;;;;;;;;36.46;26.93;98051.44;5013721;28;19940;-93
2023/10/13 15:43:49;;;;;;;;;;;;;;;36.29;26.84;98057.16;5012794;28;19917;-93
2023/10/13 15:46:16;;;;;;;;;;;;;;;36.22;27.20;98054.03;5012972;28;19928;-93
2023/10/13 15:48:45;;;;;;;;;;;;;;;36.24;26.89;98042.84;5028348;28;20016;-93
2023/10/13 15:51:15;;;;;;;;;;;;;;;36.19;27.01;98040.75;5013864;28;20281;-93
2023/10/13 15:53:43;;;;;;;;;;;;;;;36.01;27.71;98042.06;5017909;28;19921;-92
2023/10/13 15:56:12;;;;;;;;;;;;;;;36.02;27.32;98040.72;5016168;28;20293;-93
2023/10/13 15:58:39;;;;;;;;;;;;;;;36.00;27.22;98037.63;5012253;28;19961;-93
2023/10/13 16:01:07;;;;;;;;;;;;;;;35.77;28.12;98033.91;5007784;28;19934;-95
2023/10/13 16:03:34;;;;;;;;;;;;;;;35.52;27.65;98032.03;4998224;28;19930;-93
2023/10/13 16:06:04;;;;;;;;;;;;;;;35.53;27.99;98032.78;5007968;28;19925;-93
2023/10/13 16:08:33;;;;;;;;;;;;;;;35.48;27.84;98019.22;5004896;28;19968;-93
2023/10/13 16:11:07;;;;;;;;;;;;;;;35.45;28.00;98028.84;5001798;28;20397;-92
2023/10/13 16:13:36;;;;;;;;;;;;;;;35.51;27.70;98026.81;5002817;28;20281;-92
2023/10/13 16:16:05;;;;;;;;;;;;;;;35.09;28.39;98021.94;5000886;28;20308;-93
2023/10/13 16:18:34;;;;;;;;;;;;;;;35.03;28.68;98026.84;5006359;28;19917;-92
2023/10/13 16:21:03;;;;;;;;;;;;;;;35.17;28.44;98029.50;5008209;28;19929;-92
2023/10/13 16:23:29;;;;;;;;;;;;;;;35.06;28.30;98035.16;5008119;28;20125;-91
2023/10/13 16:25:58;;;;;;;;;;;;;;;35.12;28.09;98032.34;4997717;28;20001;-92
2023/10/13 16:28:25;;;;;;;;;;;;;;;35.01;28.29;98041.56;5003577;28;19984;-92
2023/10/13 16:30:53;;;;;;;;;;;;;;;34.83;28.55;98041.22;5010052;28;20425;-92
2023/10/13 16:33:20;;;;;;;;;;;;;;;34.72;28.64;98037.00;4999401;28;19993;-91
2023/10/13 16:35:46;;;;;;;;;;;;;;;34.73;28.47;98034.91;5005394;28;20318;-91
2023/10/13 16:38:12;;;;;;;;;;;;;;;34.86;28.51;98038.13;5004802;28;20381;-92
2023/10/13 16:40:41;;;;;;;;;;;;;;;34.93;28.25;98031.16;5006161;28;19932;-93
2023/10/13 16:43:09;;;;;;;;;;;;;;;34.95;28.20;98031.44;5009549;28;20305;-94